Data for 08/24/2006

Time Sea-Level Adjusted Pressure Absolute Pressure Temperature Relative Humidity Dew Point   
(mb) (inHg) (mb) (inHg) (C) (F) (%) (C) (F)
00:05 1015 29.97 844 24.92 21.9 71.4 22 -0.4 31.4
00:10 1015 29.97 845 24.95 21.7 71.1 23 -0.2 31.6
00:15 1015 29.97 845 24.95 22 71.6 22 -0.7 30.7
00:20 1015 29.97 845 24.95 22.1 71.8 23 0 32.1
00:25 1016 30 845 24.95 21.7 71.1 24 0.2 32.4
00:30 1016 30 845 24.95 21.7 71.1 24 0.3 32.5
00:35 1016 30 845 24.95 21.7 71.1 23 0.1 32.2
00:40 1016 30 845 24.95 21.6 71 24 0.5 32.9
00:45 1016 30 845 24.95 21.5 70.8 24 0.1 32.1
00:50 1016 30 845 24.95 21.6 70.8 25 0.9 33.7
00:55 1016 30 846 24.98 21.1 70.1 28 2.2 35.9
01:00 1016 30 846 24.98 20.6 69.1 29 2.3 36.2
01:05 1016 30 846 24.98 20.3 68.5 30 2.5 36.4
01:10 1017 30.03 846 24.98 20.2 68.3 32 3 37.4
01:15 1017 30.03 846 24.98 20 67.9 31 2.6 36.7
01:20 1017 30.03 846 24.98 19.8 67.6 32 2.7 36.8
01:25 1016 30 846 24.98 19.7 67.5 32 2.7 36.9
01:30 1016 30 845 24.95 19.5 67.2 34 3.3 38
01:35 1017 30.03 846 24.98 19.3 66.7 34 3.4 38.1
01:40 1017 30.03 846 24.98 18.9 66 35 3.2 37.7
01:45 1017 30.03 846 24.98 18.6 65.4 35 3.1 37.5
01:50 1017 30.03 846 24.98 18.5 65.3 35 3 37.4
01:55 1017 30.03 847 25.01 18.4 65 36 3.2 37.7
02:00 1018 30.06 847 25.01 18.1 64.6 42 5.2 41.4
02:05 1017 30.03 847 25.01 17.7 63.9 44 5.5 42
02:10 1017 30.03 846 24.98 17 62.7 43 4.4 39.9
02:15 1017 30.03 846 24.98 17 62.6 41 3.8 38.9
02:20 1017 30.03 846 24.98 17.2 63 42 4.4 39.8
02:25 1017 30.03 846 24.98 17.4 63.3 45 5.5 41.9
02:30 1017 30.03 846 24.98 17.3 63.1 45 5.5 41.9
02:35 1017 30.03 846 24.98 16.9 62.5 47 5.6 42.1
02:40 1017 30.03 846 24.98 16.7 62 53 7.1 44.7
02:45 1017 30.03 846 24.98 14.8 58.6 63 8 46.4
02:50 1017 30.03 847 25.01 14.2 57.5 63 7.4 45.3
02:55 1017 30.03 847 25.01 14.2 57.6 65 7.7 45.9
03:00 1017 30.03 847 25.01 14.2 57.5 61 6.9 44.4
03:05 1017 30.03 847 25.01 14.1 57.3 69 8.6 47.5
03:10 1018 30.06 847 25.01 13.1 55.5 73 8.4 47.2
03:15 1018 30.06 847 25.01 12.9 55.3 73 8.2 46.8
03:20 1018 30.06 847 25.01 13.3 55.9 65 6.9 44.4
03:25 1018 30.06 847 25.01 14.4 57.9 58 6.2 43.1
03:30 1018 30.06 847 25.01 14.8 58.6 58 6.8 44.2
03:35 1019 30.09 848 25.04 14.8 58.6 56 6.3 43.3
03:40 1019 30.09 848 25.04 15 58.9 56 6.4 43.5
03:45 1019 30.09 848 25.04 15 59 56 6.4 43.5
03:50 1019 30.09 848 25.04 15.1 59.2 55 6.1 43
03:55 1019 30.09 848 25.04 15 59.1 55 6 42.9
04:00 1019 30.09 848 25.04 15.1 59.2 54 6 42.8
04:05 1019 30.09 848 25.04 15.3 59.6 52 5.8 42.4
04:10 1018 30.06 848 25.04 15.3 59.5 51 5.3 41.6
04:15 1018 30.06 848 25.04 15.3 59.6 53 6 42.7
04:20 1018 30.06 847 25.01 14.9 58.9 55 6 42.9
04:25 1018 30.06 847 25.01 14.7 58.5 56 6.1 42.9
04:30 1018 30.06 847 25.01 14.5 58.2 58 6.5 43.7
04:35 1018 30.06 847 25.01 14.2 57.5 59 6.4 43.5
04:40 1018 30.06 847 25.01 14.3 57.7 58 6.2 43.2
04:45 1018 30.06 847 25.01 14.3 57.8 57 5.9 42.6
04:50 1018 30.06 847 25.01 14.3 57.7 57 6 42.8
04:55 1018 30.06 847 25.01 14.2 57.6 58 6.2 43.1
05:00 1018 30.06 847 25.01 13.6 56.4 63 6.8 44.2
05:05 1018 30.06 847 25.01 12.9 55.2 65 6.6 43.8
05:10 1018 30.06 847 25.01 12.5 54.6 65 6.1 43.1
05:15 1018 30.06 847 25.01 12.6 54.6 65 6.1 43
05:20 1018 30.06 847 25.01 12.7 54.8 64 6 42.9
05:25 1018 30.06 847 25.01 12.5 54.4 64 5.8 42.5
05:30 1018 30.06 847 25.01 12.4 54.3 61 5.2 41.4
05:35 1018 30.06 847 25.01 12.4 54.3 63 5.7 42.2
05:40 1018 30.06 847 25.01 12.3 54.1 61 5.1 41.1
05:45 1018 30.06 847 25.01 12.5 54.4 62 5.4 41.7
05:50 1018 30.06 847 25.01 12.2 54 63 5.4 41.8
05:55 1018 30.06 847 25.01 12.2 54 63 5.5 41.9
06:00 1018 30.06 847 25.01 12 53.6 64 5.5 41.9
06:05 1018 30.06 847 25.01 12 53.6 63 5.3 41.6
06:10 1018 30.06 848 25.04 12 53.6 63 5.3 41.5
06:15 1018 30.06 848 25.04 11.9 53.5 65 5.6 42
06:20 1018 30.06 848 25.04 11.4 52.5 69 5.9 42.6
06:25 1019 30.09 848 25.04 11.2 52.1 68 5.6 42.1
06:30 1019 30.09 848 25.04 11.3 52.4 65 5 41
06:35 1019 30.09 848 25.04 11.6 52.8 62 4.6 40.4
06:40 1019 30.09 848 25.04 11.9 53.4 61 4.6 40.3
06:45 1019 30.09 848 25.04 12 53.5 61 4.7 40.5
06:50 1019 30.09 848 25.04 12.1 53.9 58 4.1 39.3
06:55 1019 30.09 848 25.04 12.4 54.3 57 4.3 39.7
07:00 1019 30.09 848 25.04 12.5 54.4 57 4.2 39.5
07:05 1019 30.09 848 25.04 12.5 54.5 60 4.9 40.9
07:10 1019 30.09 848 25.04 12.4 54.4 59 4.7 40.4
07:15 1019 30.09 848 25.04 12.6 54.6 60 5 41
07:20 1019 30.09 848 25.04 12.7 54.9 60 5.1 41.2
07:25 1019 30.09 848 25.04 12.6 54.6 60 5.1 41.2
07:30 1019 30.09 848 25.04 12.2 53.9 61 4.9 40.8
07:35 1019 30.09 848 25.04 12.2 53.9 59 4.5 40
07:40 1019 30.09 848 25.04 11.9 53.5 63 5.2 41.3
07:45 1019 30.09 848 25.04 11.9 53.3 62 4.8 40.6
07:50 1019 30.09 848 25.04 12.1 53.8 61 5 40.9
07:55 1019 30.09 848 25.04 12.1 53.8 61 4.9 40.9
08:00 1019 30.09 848 25.04 11.8 53.3 64 5.3 41.5
08:05 1019 30.09 848 25.04 12.1 53.7 61 4.9 40.8
08:10 1019 30.09 848 25.04 12.4 54.4 60 5 41
08:15 1019 30.09 848 25.04 12.7 54.8 60 5.1 41.1
08:20 1019 30.09 849 25.07 13.3 55.9 57 5.1 41.1
08:25 1019 30.09 849 25.07 13.7 56.7 56 5.1 41.1
08:30 1019 30.09 849 25.07 14 57.1 56 5.4 41.7
08:35 1019 30.09 849 25.07 13.8 56.8 57 5.4 41.8
08:40 1019 30.09 849 25.07 14 57.1 58 5.8 42.5
08:45 1020 30.12 849 25.07 14.2 57.6 57 5.9 42.5
08:50 1019 30.09 849 25.07 14.7 58.4 51 4.7 40.5
08:55 1019 30.09 849 25.07 15.1 59.1 47 4 39.2
09:00 1019 30.09 849 25.07 15.4 59.6 45 3.6 38.5
09:05 1019 30.09 849 25.07 15.6 60 45 3.7 38.7
09:10 1019 30.09 849 25.07 15.7 60.3 42 3.1 37.5
09:15 1019 30.09 849 25.07 15.8 60.5 44 3.6 38.4
09:20 1019 30.09 849 25.07 16 60.7 43 3.6 38.6
09:25 1019 30.09 849 25.07 16 60.7 43 3.5 38.4
09:30 1019 30.09 849 25.07 16.1 60.9 44 3.8 38.8
09:35 1019 30.09 848 25.04 16.4 61.5 42 3.6 38.4
09:40 1019 30.09 848 25.04 16.3 61.3 43 3.9 39.1
09:45 1019 30.09 848 25.04 16.3 61.4 44 4.1 39.4
09:50 1019 30.09 848 25.04 16.5 61.6 44 4.2 39.5
09:55 1019 30.09 848 25.04 16.6 61.8 41 3.5 38.4
10:00 1019 30.09 848 25.04 17.2 63 40 3.7 38.7
10:05 1019 30.09 848 25.04 17.9 64.2 37 3.1 37.7
10:10 1019 30.09 849 25.07 18 64.5 38 3.5 38.4
10:15 1019 30.09 849 25.07 18.3 64.9 36 3 37.4
10:20 1019 30.09 849 25.07 18.5 65.2 34 2.6 36.6
10:25 1019 30.09 849 25.07 19 66.1 32 2.1 35.9
10:30 1019 30.09 849 25.07 18.7 65.6 34 2.5 36.5
10:35 1019 30.09 849 25.07 18.7 65.6 33 2.1 35.8
10:40 1019 30.09 849 25.07 18.9 66.1 33 2.3 36.2
10:45 1019 30.09 849 25.07 19.4 67 32 2.4 36.3
10:50 1019 30.09 849 25.07 19.5 67.1 32 2.4 36.3
10:55 1019 30.09 849 25.07 20 68 31 2.7 36.8
11:00 1019 30.09 848 25.04 20.3 68.5 30 2.4 36.4
11:05 1019 30.09 848 25.04 20.3 68.6 31 2.8 37
11:10 1019 30.09 848 25.04 20.6 69 30 2.4 36.3
11:15 1019 30.09 848 25.04 20.8 69.4 29 2.4 36.4
11:20 1019 30.09 848 25.04 20.2 68.4 31 2.7 36.9
11:25 1019 30.09 848 25.04 20.5 68.9 30 2.3 36.1
11:30 1019 30.09 848 25.04 20.9 69.6 30 2.6 36.8
11:35 1019 30.09 848 25.04 21 69.9 28 1.8 35.2
11:40 1019 30.09 848 25.04 21.2 70.1 27 1.7 35.1
11:45 1019 30.09 848 25.04 21.4 70.4 28 2.4 36.4
11:50 1019 30.09 848 25.04 21.6 70.8 29 2.7 36.9
11:55 1019 30.09 848 25.04 21.5 70.7 23 -0.2 31.7
12:00 1019 30.09 848 25.04 21.5 70.7 24 0.1 32.2
12:05 1019 30.09 848 25.04 21.9 71.5 23 0 32
12:10 1019 30.09 848 25.04 21.8 71.3 24 0.6 33.2
12:15 1019 30.09 848 25.04 21.7 71 23 -0.1 31.9
12:20 1019 30.09 848 25.04 21.5 70.7 24 0.4 32.7
12:25 1019 30.09 848 25.04 22 71.6 23 0.1 32.2
12:30 1018 30.06 848 25.04 21.8 71.2 22 -0.4 31.3
12:35 1018 30.06 848 25.04 22.5 72.5 27 2.6 36.7
12:40 1018 30.06 848 25.04 22.4 72.3 24 1.1 33.9
12:45 1018 30.06 848 25.04 22.3 72.1 26 2 35.5
12:50 1018 30.06 847 25.01 22.3 72.1 24 1.1 34
12:55 1018 30.06 847 25.01 22.6 72.7 26 2.2 36
13:00 1018 30.06 847 25.01 22.6 72.7 26 2.3 36.1
13:05 1018 30.06 847 25.01 22.5 72.4 28 3 37.4
13:10 1018 30.06 847 25.01 22.6 72.7 26 2.2 35.9
13:15 1018 30.06 847 25.01 22.8 73.1 25 2.1 35.8
13:20 1018 30.06 847 25.01 22.7 72.9 24 1.5 34.6
13:25 1018 30.06 847 25.01 22.9 73.1 25 2.1 35.8
13:30 1018 30.06 847 25.01 23 73.4 25 2.3 36.1
13:35 1018 30.06 847 25.01 23 73.3 25 2.1 35.9
13:40 1018 30.06 847 25.01 22.9 73.1 24 1.3 34.4
13:45 1018 30.06 847 25.01 22.8 73 24 1.6 34.9
13:50 1017 30.03 847 25.01 21.7 71.1 26 1.6 34.9
13:55 1017 30.03 847 25.01 21.4 70.6 27 1.8 35.2
14:00 1017 30.03 847 25.01 22.1 71.8 24 1 33.7
14:05 1017 30.03 846 24.98 22 71.7 24 0.9 33.7
14:10 1017 30.03 846 24.98 22 71.7 25 1 33.9
14:15 1017 30.03 846 24.98 22.2 72 24 0.9 33.7
14:20 1017 30.03 846 24.98 23.1 73.5 24 1.4 34.5
14:25 1017 30.03 846 24.98 23.8 74.8 23 1.4 34.6
14:30 1017 30.03 846 24.98 24.1 75.3 22 1 33.9
14:35 1017 30.03 846 24.98 24.4 75.9 21 0.9 33.7
14:40 1017 30.03 846 24.98 24.3 75.7 21 0.7 33.2
14:45 1017 30.03 846 24.98 24.4 76 22 1.4 34.6
14:50 1017 30.03 846 24.98 24.1 75.5 21 0.8 33.5
14:55 1017 30.03 846 24.98 23.6 74.4 22 0.8 33.5
15:00 1017 30.03 846 24.98 23.7 74.6 21 0.5 32.8
15:05 1016 30 846 24.98 24.1 75.4 20 0.3 32.6
15:10 1016 30 846 24.98 24.4 75.9 21 1.1 34
15:15 1016 30 846 24.98 24.3 75.7 20 0.2 32.3
15:20 1016 30 845 24.95 24.5 76.2 20 0.3 32.5
15:25 1016 30 845 24.95 25 76.9 20 0.8 33.5
15:30 1016 30 845 24.95 25.1 77.3 20 1.2 34.1
15:35 1016 30 845 24.95 24.6 76.3 20 0.6 33.2
15:40 1016 30 845 24.95 24.9 76.7 20 0.3 32.6
15:45 1016 30 845 24.95 25.2 77.3 19 0.4 32.7
15:50 1016 30 845 24.95 24.9 76.7 21 1.1 33.9
15:55 1016 30 845 24.95 24.1 75.4 19 -0.4 31.3
16:00 1016 30 845 24.95 23.9 74.9 21 0.4 32.7
16:05 1016 30 845 24.95 24.4 75.9 20 -0 31.9
16:10 1016 30 845 24.95 24.2 75.5 20 0.2 32.3
16:15 1016 30 845 24.95 23.9 74.9 21 0.6 33
16:20 1016 30 845 24.95 23.9 75 21 0.3 32.6
16:25 1016 30 845 24.95 24.1 75.4 21 0.4 32.8
16:30 1016 30 845 24.95 24.5 76 20 0.5 32.9
16:35 1016 30 845 24.95 24.7 76.4 19 0.1 32.2
16:40 1016 30 845 24.95 25.2 77.4 19 0.3 32.6
16:45 1016 30 845 24.95 24.1 75.3 22 1 33.8
16:50 1016 30 845 24.95 23.8 74.8 22 0.8 33.4
16:55 1016 30 845 24.95 24.1 75.3 22 1.3 34.4
17:00 1015 29.97 845 24.95 24.4 75.9 19 -0.5 31
17:05 1015 29.97 845 24.95 24.1 75.3 19 -0.9 30.4
17:10 1015 29.97 845 24.95 24.3 75.8 20 0.2 32.4
17:15 1015 29.97 845 24.95 23.6 74.5 20 -0.2 31.6
17:20 1015 29.97 845 24.95 22.9 73.2 21 -0.6 30.9
17:25 1015 29.97 845 24.95 22.6 72.7 21 -0.6 30.9
17:30 1015 29.97 845 24.95 23.1 73.5 20 -1.1 30.1
17:35 1015 29.97 844 24.92 23.4 74.1 20 -0.4 31.2
17:40 1015 29.97 844 24.92 23.4 74.1 21 -0.1 31.9
17:45 1015 29.97 844 24.92 23.6 74.5 20 -0.4 31.3
17:50 1015 29.97 844 24.92 23.9 75 18 -1.5 29.3
17:55 1015 29.97 844 24.92 23.6 74.4 20 -0.3 31.4
18:00 1015 29.97 844 24.92 23.3 74 19 -1.3 29.7
18:05 1015 29.97 844 24.92 23.2 73.8 20 -0.6 30.9
18:10 1015 29.97 844 24.92 23.2 73.7 21 -0.4 31.3
18:15 1015 29.97 844 24.92 23.3 73.9 21 0.2 32.3
18:20 1015 29.97 844 24.92 23.2 73.7 20 -0.8 30.6
18:25 1015 29.97 845 24.95 23.1 73.5 20 -0.7 30.8
18:30 1015 29.97 844 24.92 23.2 73.7 20 -0.5 31
18:35 1015 29.97 844 24.92 23 73.3 21 0 32
18:40 1015 29.97 844 24.92 23.1 73.6 22 0.4 32.7
18:45 1015 29.97 844 24.92 23.1 73.6 22 0.2 32.4
18:50 1015 29.97 844 24.92 23.1 73.5 23 1 33.8
18:55 1015 29.97 844 24.92 23 73.4 21 -0.2 31.6
19:00 1015 29.97 844 24.92 23 73.3 21 -0.5 31
19:05 1015 29.97 844 24.92 22.9 73.2 21 -0.5 31.1
19:10 1015 29.97 844 24.92 22.9 73.2 22 0.3 32.5
19:15 1015 29.97 844 24.92 22.8 73.1 21 -0.6 31
19:20 1015 29.97 844 24.92 22.9 73.2 22 0.1 32.1
19:25 1015 29.97 844 24.92 22.9 73.2 21 -0.4 31.3
19:30 1015 29.97 844 24.92 22.8 73.1 20 -0.9 30.5
19:35 1015 29.97 844 24.92 22.7 72.8 21 -0.8 30.6
19:40 1015 29.97 844 24.92 22.6 72.6 21 -0.6 31
19:45 1015 29.97 844 24.92 22.4 72.3 21 -0.5 31
19:50 1015 29.97 844 24.92 22.3 72.1 22 -0.2 31.7
19:55 1015 29.97 844 24.92 22.2 72 23 0.6 33
20:00 1015 29.97 844 24.92 21.9 71.4 27 2.4 36.2
20:05 1015 29.97 844 24.92 20.9 69.7 34 4.7 40.5
20:10 1015 29.97 844 24.92 20.6 69.1 26 0.5 32.9
20:15 1015 29.97 844 24.92 20.7 69.2 25 -0.1 31.9
20:20 1015 29.97 844 24.92 21.2 70.1 21 -1.6 29.2
20:25 1015 29.97 844 24.92 21.5 70.8 28 2.4 36.3
20:30 1015 29.97 844 24.92 21.4 70.5 29 3 37.4
20:35 1015 29.97 844 24.92 21 69.9 29 2.6 36.7
20:40 1015 29.97 844 24.92 20.2 68.3 31 2.6 36.7
20:45 1015 29.97 844 24.92 19.6 67.3 33 3.1 37.6
20:50 1015 29.97 844 24.92 19.3 66.7 30 1.6 35
20:55 1015 29.97 844 24.92 19.4 66.9 30 1.5 34.8
21:00 1015 29.97 844 24.92 19.6 67.3 28 0.8 33.5
21:05 1015 29.97 844 24.92 20 68 29 1.4 34.4
21:10 1015 29.97 844 24.92 19.9 67.8 30 1.8 35.2
21:15 1015 29.97 844 24.92 19.8 67.6 29 1.6 34.8
21:20 1015 29.97 845 24.95 19.6 67.3 28 0.7 33.2
21:25 1015 29.97 845 24.95 19.6 67.3 28 0.8 33.4
21:30 1016 30 845 24.95 19.8 67.7 26 0 32.1
21:35 1016 30 845 24.95 20 68 26 0.1 32.2
21:40 1016 30 845 24.95 19.9 67.9 26 0.2 32.4
21:45 1016 30 845 24.95 19.9 67.8 27 0.4 32.8
21:50 1016 30 845 24.95 19.8 67.6 27 0.5 32.9
21:55 1016 30 845 24.95 19.9 67.8 27 0.7 33.2
22:00 1016 30 845 24.95 20 68 28 1 33.7
22:05 1016 30 845 24.95 20 68 28 1 33.7
22:10 1016 30 845 24.95 20.1 68.1 28 1.1 33.9
22:15 1016 30 845 24.95 20.1 68.1 28 1.2 34.1
22:20 1016 30 845 24.95 20 68 29 1.3 34.4
22:25 1016 30 845 24.95 20 68 29 1.5 34.7
22:30 1016 30 845 24.95 19.9 67.9 29 1.5 34.7
22:35 1016 30 845 24.95 19.8 67.6 29 1.6 34.9
22:40 1016 30 845 24.95 19.8 67.6 30 1.6 34.9
22:45 1016 30 845 24.95 19.6 67.3 30 1.8 35.3
22:50 1016 30 845 24.95 19.4 67 30 1.7 35
22:55 1016 30 845 24.95 19.3 66.8 31 1.8 35.3
23:00 1016 30 845 24.95 19.4 66.9 31 1.9 35.5
23:05 1015 29.97 845 24.95 19.4 66.9 31 2.2 35.9
23:10 1015 29.97 845 24.95 19.3 66.8 32 2.3 36.1
23:15 1015 29.97 845 24.95 19.2 66.6 32 2.5 36.5
23:20 1015 29.97 845 24.95 19.1 66.4 33 2.5 36.5
23:25 1015 29.97 845 24.95 19.1 66.3 33 2.7 36.9
23:30 1015 29.97 844 24.92 19 66.2 34 2.8 37
23:35 1015 29.97 844 24.92 18.9 66.1 34 2.8 37
23:40 1015 29.97 844 24.92 18.8 65.8 35 3 37.4
23:45 1015 29.97 844 24.92 18.7 65.6 35 3 37.4
23:50 1015 29.97 844 24.92 18.6 65.4 35 3.1 37.7
23:55 1015 29.97 844 24.92 18.4 65.1 36 3.3 38
24:00 1015 29.97 845 24.95 18.3 65 37 3.6 38.5